createdAt,value
2019-06-26T00:02:13.758Z,102121.06
2019-06-26T00:04:42.475Z,102120.98
2019-06-26T00:07:11.477Z,102119.92
2019-06-26T00:09:40.077Z,102125.09
2019-06-26T00:12:08.742Z,102128.11
2019-06-26T00:14:38.912Z,102133.87
2019-06-26T00:17:07.778Z,102134.44
2019-06-26T00:19:36.557Z,102128.66
2019-06-26T00:22:05.186Z,102132.89
2019-06-26T00:24:33.859Z,102135.06
2019-06-26T00:27:02.688Z,102141.66
2019-06-26T00:29:31.608Z,102135.71
2019-06-26T00:32:00.237Z,102137.54
2019-06-26T00:34:28.991Z,102142.55
2019-06-26T00:36:57.735Z,102147.09
2019-06-26T00:39:26.509Z,102146.17
2019-06-26T00:41:55.270Z,102155.95
2019-06-26T00:44:23.826Z,102157.46
2019-06-26T00:46:52.601Z,102157.09
2019-06-26T00:49:21.355Z,102152.50
2019-06-26T00:51:50.016Z,102158.77
2019-06-26T00:54:18.835Z,102160.16
2019-06-26T00:56:47.386Z,102169.16
2019-06-26T00:59:15.935Z,102157.31
2019-06-26T01:01:44.942Z,102160.75
2019-06-26T01:04:15.363Z,102161.83
2019-06-26T01:06:44.672Z,102167.73
2019-06-26T01:09:14.602Z,102166.27
2019-06-26T01:11:43.662Z,102164.02
2019-06-26T01:14:12.860Z,102169.23
2019-06-26T01:16:41.617Z,102177.59
2019-06-26T01:19:10.517Z,102187.33
2019-06-26T01:21:39.599Z,102183.83
2019-06-26T01:24:08.233Z,102183.13
2019-06-26T01:26:37.046Z,102181.70
2019-06-26T01:29:05.765Z,102184.73
2019-06-26T01:31:34.405Z,102181.48
2019-06-26T01:34:03.158Z,102181.91
2019-06-26T01:36:31.820Z,102179.75
2019-06-26T01:39:00.413Z,102177.47
2019-06-26T01:41:28.956Z,102176.70
2019-06-26T01:44:10.564Z,102187.80
2019-06-26T01:46:28.272Z,102192.48
2019-06-26T01:48:56.774Z,102196.48
2019-06-26T01:51:25.251Z,102191.80
2019-06-26T01:53:53.756Z,102196.51
2019-06-26T01:56:22.256Z,102194.22
2019-06-26T01:58:50.794Z,102197.71
2019-06-26T02:01:19.298Z,102199.16
2019-06-26T02:03:47.784Z,102194.67
2019-06-26T02:06:16.345Z,102201.98
2019-06-26T02:08:44.939Z,102207.17
2019-06-26T02:11:13.515Z,102212.70
2019-06-26T02:13:44.832Z,102218.46
2019-06-26T02:16:13.406Z,102221.48
2019-06-26T02:18:46.319Z,102224.92
2019-06-26T02:21:14.961Z,102228.20
2019-06-26T02:23:43.461Z,102231.64
2019-06-26T02:26:12.040Z,102228.92
2019-06-26T02:28:40.570Z,102228.28
2019-06-26T02:31:09.131Z,102226.52
2019-06-26T02:33:37.612Z,102232.95
2019-06-26T02:36:06.106Z,102233.27
2019-06-26T02:38:34.690Z,102235.91
2019-06-26T02:41:03.260Z,102237.44
2019-06-26T02:43:31.789Z,102247.11
2019-06-26T02:46:00.345Z,102245.38
2019-06-26T02:48:28.924Z,102245.55
2019-06-26T02:50:57.506Z,102255.15
2019-06-26T02:53:26.187Z,102268.02
2019-06-26T02:55:54.754Z,102266.83
2019-06-26T02:58:23.245Z,102272.77
2019-06-26T03:00:51.829Z,102276.87
2019-06-26T03:03:20.383Z,102280.14
2019-06-26T03:05:48.870Z,102278.46
2019-06-26T03:08:17.445Z,102283.30
2019-06-26T03:10:45.927Z,102287.20
2019-06-26T03:13:14.408Z,102286.88
2019-06-26T03:15:42.982Z,102292.00
2019-06-26T03:18:11.556Z,102298.44
2019-06-26T03:20:49.591Z,102295.31
2019-06-26T03:23:18.140Z,102297.66
2019-06-26T03:25:46.696Z,102303.10
2019-06-26T03:28:15.232Z,102304.34
2019-06-26T03:30:43.741Z,102307.21
2019-06-26T03:33:12.294Z,102315.69
2019-06-26T03:35:41.041Z,102319.92
2019-06-26T03:38:09.613Z,102325.50
2019-06-26T03:40:38.173Z,102326.52
2019-06-26T03:43:06.697Z,102334.36
2019-06-26T03:45:35.231Z,102332.02
2019-06-26T03:48:03.706Z,102339.27
2019-06-26T03:50:32.288Z,102341.60
2019-06-26T03:53:00.775Z,102346.20
2019-06-26T03:55:29.345Z,102343.25
2019-06-26T03:57:57.877Z,102349.64
2019-06-26T04:00:38.355Z,102344.80
2019-06-26T04:03:06.929Z,102354.35
2019-06-26T04:05:35.563Z,102357.20
2019-06-26T04:08:04.648Z,102355.58
2019-06-26T04:10:33.865Z,102353.84
2019-06-26T04:13:02.338Z,102354.42
2019-06-26T04:15:41.407Z,102359.20
2019-06-26T04:18:01.085Z,102360.58
2019-06-26T04:20:29.705Z,102364.02
2019-06-26T04:22:58.272Z,102368.73
2019-06-26T04:25:26.824Z,102376.52
2019-06-26T04:27:55.308Z,102376.82
2019-06-26T04:30:23.911Z,102377.64
2019-06-26T04:32:52.393Z,102384.49
2019-06-26T04:35:21.124Z,102382.13
2019-06-26T04:37:49.782Z,102386.64
2019-06-26T04:40:20.461Z,102388.36
2019-06-26T04:42:49.296Z,102383.84
2019-06-26T04:45:17.847Z,102390.58
2019-06-26T04:47:46.547Z,102394.56
2019-06-26T04:50:15.062Z,102396.31
2019-06-26T04:52:43.542Z,102401.30
2019-06-26T05:03:53.852Z,102397.37
2019-06-26T05:11:54.136Z,102401.88
2019-06-26T05:14:28.438Z,102397.67
2019-06-26T05:16:57.310Z,102402.06
2019-06-26T05:19:25.918Z,102401.80
2019-06-26T05:21:58.200Z,102408.81
2019-06-26T05:33:15.510Z,102428.91
2019-06-26T05:35:48.593Z,102424.38
2019-06-26T05:38:29.955Z,102428.19
2019-06-26T05:41:00.863Z,102435.42
2019-06-26T05:43:33.085Z,102427.88
2019-06-26T05:58:31.890Z,102417.31
2019-06-26T06:01:00.585Z,102417.60
2019-06-26T06:10:53.366Z,102432.06
2019-06-26T06:13:25.587Z,102439.95
2019-06-26T06:15:57.349Z,102445.82
2019-06-26T06:18:26.541Z,102447.03
2019-06-26T06:21:05.654Z,102453.45
2019-06-26T06:23:34.569Z,102459.16
2019-06-26T06:42:19.757Z,102477.53
2019-06-26T06:44:49.283Z,102478.94
2019-06-26T06:47:18.579Z,102481.20
2019-06-26T06:49:50.138Z,102479.16
2019-06-26T06:52:19.396Z,102481.43
2019-06-26T06:54:48.610Z,102482.73
2019-06-26T06:57:17.846Z,102486.51
2019-06-26T06:59:47.764Z,102489.94
2019-06-26T07:02:17.013Z,102497.06
2019-06-26T07:04:46.232Z,102501.70
2019-06-26T07:07:19.367Z,102504.23
2019-06-26T07:09:49.129Z,102509.15
2019-06-26T07:12:20.800Z,102519.28
2019-06-26T07:14:49.860Z,102532.91
2019-06-26T07:17:20.928Z,102533.25
2019-06-26T07:19:50.362Z,102531.57
2019-06-26T07:22:19.682Z,102541.16
2019-06-26T07:24:49.178Z,102541.94
2019-06-26T07:27:18.484Z,102548.45
2019-06-26T07:29:47.892Z,102545.50
2019-06-26T07:32:17.379Z,102553.56
2019-06-26T07:34:48.749Z,102550.06
2019-06-26T07:37:18.025Z,102554.28
2019-06-26T07:39:47.393Z,102560.14
2019-06-26T07:42:17.010Z,102556.44
2019-06-26T07:44:46.549Z,102562.39
2019-06-26T07:47:22.994Z,102567.02
2019-06-26T07:49:47.043Z,102566.06
2019-06-26T07:52:21.356Z,102572.36
2019-06-26T07:54:50.652Z,102567.24
2019-06-26T07:57:20.270Z,102565.84
2019-06-26T07:59:49.486Z,102569.01
2019-06-26T08:02:18.730Z,102574.91
2019-06-26T08:04:48.279Z,102579.77
2019-06-26T08:07:17.580Z,102581.46
2019-06-26T08:09:48.213Z,102584.06
2019-06-26T08:12:17.458Z,102575.41
2019-06-26T08:14:46.631Z,102575.57
2019-06-26T08:17:16.052Z,102583.19
2019-06-26T08:19:45.515Z,102589.28
2019-06-26T08:22:14.733Z,102590.39
2019-06-26T08:24:44.025Z,102594.65
2019-06-26T08:27:13.375Z,102603.06
2019-06-26T08:29:47.749Z,102601.59
2019-06-26T08:32:17.910Z,102595.41
2019-06-26T08:34:47.186Z,102594.84
2019-06-26T08:37:16.565Z,102593.39
2019-06-26T08:39:45.834Z,102590.61
2019-06-26T08:42:15.208Z,102589.10
2019-06-26T08:44:44.501Z,102588.78
2019-06-26T08:47:13.761Z,102584.59
2019-06-26T08:50:40.550Z,102594.93
2019-06-26T08:53:17.289Z,102587.92
2019-06-26T08:56:03.264Z,102594.57
2019-06-26T09:02:09.121Z,102598.08
2019-06-26T09:24:05.555Z,102606.89
2019-06-26T09:26:34.833Z,102613.03
2019-06-26T09:29:04.247Z,102621.66
2019-06-26T09:31:36.322Z,102623.66
2019-06-26T09:34:05.531Z,102615.52
2019-06-26T09:39:59.996Z,102614.25
2019-06-26T09:42:29.331Z,102609.34
2019-06-26T09:44:58.751Z,102607.47
2019-06-26T09:50:31.531Z,102608.20
2019-06-26T11:16:51.507Z,102664.64
2019-06-26T11:22:24.008Z,102662.08
2019-06-26T11:24:53.167Z,102661.72
2019-06-26T11:27:22.390Z,102654.22
2019-06-26T11:29:54.438Z,102657.17
2019-06-26T11:32:23.889Z,102659.94
2019-06-26T11:34:53.300Z,102668.80
2019-06-26T11:38:01.274Z,102671.96
2019-06-26T11:44:39.511Z,102673.95
2019-06-26T11:59:57.721Z,102648.69
2019-06-26T12:02:31.607Z,102652.15
2019-06-26T12:18:50.751Z,102646.35
2019-06-26T12:24:32.563Z,102657.10
2019-06-26T12:27:22.055Z,102653.64
2019-06-26T12:33:03.399Z,102659.55
2019-06-26T12:35:29.875Z,102653.20
2019-06-26T12:41:19.096Z,102665.02
2019-06-26T12:49:31.763Z,102667.67
2019-06-26T12:52:01.085Z,102677.59
2019-06-26T12:57:06.675Z,102675.31
2019-06-26T12:59:35.998Z,102667.00
2019-06-26T13:02:05.204Z,102668.14
2019-06-26T14:20:00.300Z,102633.50
2019-06-26T14:22:29.509Z,102625.95
2019-06-26T14:24:58.799Z,102616.88
2019-06-26T14:27:28.045Z,102616.81
2019-06-26T14:29:57.277Z,102618.69
2019-06-26T14:32:26.444Z,102611.35
2019-06-26T14:34:55.651Z,102611.62
2019-06-26T14:37:24.824Z,102610.63
2019-06-26T14:39:54.014Z,102614.04
2019-06-26T14:42:23.274Z,102615.98
2019-06-26T14:44:52.890Z,102610.64
2019-06-26T14:47:22.136Z,102616.04
2019-06-26T14:49:51.374Z,102615.59
2019-06-26T14:52:20.535Z,102617.91
2019-06-26T14:54:49.719Z,102607.88
2019-06-26T14:57:18.960Z,102615.25
2019-06-26T14:59:48.233Z,102618.75
2019-06-26T15:02:17.441Z,102615.42
2019-06-26T15:04:46.676Z,102615.86
2019-06-26T15:07:15.836Z,102619.77
2019-06-26T15:09:45.007Z,102623.75
2019-06-26T15:12:14.254Z,102629.96
2019-06-26T15:14:43.423Z,102620.39
2019-06-26T15:17:12.638Z,102635.14
2019-06-26T15:19:41.852Z,102627.67
2019-06-26T15:22:11.085Z,102638.83
2019-06-26T15:24:40.294Z,102636.75
2019-06-26T15:27:09.472Z,102636.16
2019-06-26T15:29:38.699Z,102616.98
2019-06-26T15:32:07.856Z,102637.64
2019-06-26T15:34:37.038Z,102631.62
2019-06-26T15:37:06.262Z,102629.95
2019-06-26T15:39:35.435Z,102629.56
2019-06-26T15:42:04.725Z,102631.30
2019-06-26T15:44:33.902Z,102632.89
2019-06-26T15:47:03.111Z,102635.70
2019-06-26T15:49:32.297Z,102628.05
2019-06-26T15:52:14.527Z,102639.23
2019-06-26T15:54:32.452Z,102630.97
2019-06-26T15:57:01.696Z,102630.80
2019-06-26T15:59:31.281Z,102625.05
2019-06-26T16:02:00.496Z,102623.45
2019-06-26T16:04:29.747Z,102618.73
2019-06-26T16:06:58.923Z,102624.31
2019-06-26T16:09:28.126Z,102625.57
2019-06-26T16:11:58.936Z,102619.27
2019-06-26T16:14:28.355Z,102623.05
2019-06-26T16:16:59.202Z,102622.87
2019-06-26T16:19:28.384Z,102616.75
2019-06-26T16:21:57.557Z,102625.23
2019-06-26T16:24:30.036Z,102627.38
2019-06-26T16:26:57.715Z,102612.87
2019-06-26T16:29:26.899Z,102621.44
2019-06-26T16:31:56.139Z,102624.23
2019-06-26T16:34:25.304Z,102628.07
2019-06-26T16:36:54.545Z,102620.77
2019-06-26T16:39:23.757Z,102621.78
2019-06-26T16:41:53.023Z,102620.86
2019-06-26T16:44:22.298Z,102620.71
2019-06-26T16:46:51.509Z,102621.30
2019-06-26T16:49:20.690Z,102623.55
2019-06-26T16:51:49.886Z,102626.01
2019-06-26T16:54:19.053Z,102623.02
2019-06-26T16:56:48.257Z,102632.94
2019-06-26T16:59:17.487Z,102621.67
2019-06-26T17:01:46.633Z,102625.84
2019-06-26T17:04:15.855Z,102625.33
2019-06-26T17:06:45.097Z,102626.04
2019-06-26T17:09:14.285Z,102639.50
2019-06-26T17:11:43.619Z,102642.14
2019-06-26T17:14:12.805Z,102640.21
2019-06-26T17:16:41.993Z,102636.63
2019-06-26T17:19:11.158Z,102639.22
2019-06-26T17:21:40.399Z,102627.59
2019-06-26T17:24:09.593Z,102633.80
2019-06-26T17:26:38.769Z,102630.44
2019-06-26T17:29:08.325Z,102632.66
2019-06-26T17:31:37.540Z,102634.46
2019-06-26T17:34:06.700Z,102639.47
2019-06-26T17:36:35.903Z,102637.55
2019-06-26T17:39:07.343Z,102635.91
2019-06-26T17:41:36.555Z,102635.53
2019-06-26T17:44:05.772Z,102638.89
2019-06-26T17:46:35.083Z,102635.38
2019-06-26T17:49:04.298Z,102636.84
2019-06-26T17:51:33.498Z,102631.06
2019-06-26T17:54:02.678Z,102629.91
2019-06-26T17:56:31.885Z,102629.09
2019-06-26T17:59:01.171Z,102627.88
2019-06-26T18:01:30.435Z,102623.72
2019-06-26T18:03:59.645Z,102625.92
2019-06-26T18:06:28.921Z,102634.35
2019-06-26T18:08:58.177Z,102635.36
2019-06-26T18:11:27.424Z,102633.27
2019-06-26T18:13:56.652Z,102639.66
2019-06-26T18:16:25.902Z,102639.64
2019-06-26T18:18:55.110Z,102647.00
2019-06-26T18:21:24.317Z,102645.38
2019-06-26T18:23:53.591Z,102649.00
2019-06-26T18:26:22.948Z,102663.89
2019-06-26T18:28:52.165Z,102663.38
2019-06-26T18:31:21.414Z,102658.98
2019-06-26T18:33:50.660Z,102660.31
2019-06-26T18:36:19.831Z,102661.58
2019-06-26T18:38:49.056Z,102657.11
2019-06-26T18:41:18.758Z,102656.61
2019-06-26T18:43:48.001Z,102653.87
2019-06-26T18:46:17.484Z,102659.56
2019-06-26T18:48:46.738Z,102663.34
2019-06-26T18:51:15.946Z,102662.38
2019-06-26T18:53:53.596Z,102664.14
2019-06-26T18:56:16.567Z,102662.39
2019-06-26T18:58:45.708Z,102665.18
2019-06-26T19:01:14.959Z,102670.30
2019-06-26T19:03:44.156Z,102662.28
2019-06-26T19:06:13.336Z,102662.89
2019-06-26T19:08:42.845Z,102673.77
2019-06-26T19:11:12.064Z,102665.83
2019-06-26T19:13:41.272Z,102675.41
2019-06-26T19:16:10.564Z,102674.23
2019-06-26T19:18:39.755Z,102684.09
2019-06-26T19:21:08.937Z,102681.56
2019-06-26T19:23:38.146Z,102684.73
2019-06-26T19:26:07.356Z,102694.55
2019-06-26T19:28:36.654Z,102695.95
2019-06-26T19:31:05.903Z,102705.82
2019-06-26T19:33:35.168Z,102703.23
2019-06-26T19:36:04.415Z,102701.45
2019-06-26T19:38:33.802Z,102707.54
2019-06-26T19:41:03.145Z,102715.16
2019-06-26T19:43:32.382Z,102719.97
2019-06-26T19:46:01.651Z,102719.64
2019-06-26T19:48:30.855Z,102729.18
2019-06-26T19:51:00.124Z,102731.95
2019-06-26T19:53:29.366Z,102736.03
2019-06-26T19:55:58.624Z,102733.59
2019-06-26T19:58:27.842Z,102736.84
2019-06-26T20:00:57.100Z,102739.80
2019-06-26T20:03:26.479Z,102747.19
2019-06-26T20:05:55.735Z,102748.75
2019-06-26T20:08:24.954Z,102753.08
2019-06-26T20:10:54.186Z,102757.09
2019-06-26T20:13:23.395Z,102754.82
2019-06-26T20:15:52.619Z,102767.19
2019-06-26T20:18:21.777Z,102764.38
2019-06-26T20:20:51.008Z,102769.55
2019-06-26T20:23:20.197Z,102766.82
2019-06-26T20:25:49.382Z,102774.59
2019-06-26T20:28:18.676Z,102778.05
2019-06-26T20:30:48.131Z,102779.37
2019-06-26T20:33:17.570Z,102779.59
2019-06-26T20:35:46.925Z,102782.61
2019-06-26T20:38:20.584Z,102785.23
2019-06-26T20:40:50.060Z,102787.66
2019-06-26T20:43:19.313Z,102793.45
2019-06-26T20:45:48.853Z,102797.59
2019-06-26T20:48:18.079Z,102797.56
2019-06-26T20:50:47.288Z,102797.20
2019-06-26T20:53:16.492Z,102795.63
2019-06-26T20:55:45.718Z,102801.58
2019-06-26T20:58:14.947Z,102801.78
2019-06-26T21:00:44.148Z,102801.44
2019-06-26T21:03:13.317Z,102807.41
2019-06-26T21:05:42.559Z,102807.05
2019-06-26T21:08:11.727Z,102812.87
2019-06-26T21:10:40.925Z,102809.66
2019-06-26T21:13:10.107Z,102814.22
2019-06-26T21:15:39.304Z,102815.03
2019-06-26T21:18:08.574Z,102818.29
2019-06-26T21:20:37.791Z,102815.20
2019-06-26T21:23:17.921Z,102812.43
2019-06-26T21:25:37.967Z,102809.73
2019-06-26T21:28:07.219Z,102820.59
2019-06-26T21:30:36.419Z,102819.74
2019-06-26T21:33:05.633Z,102821.44
2019-06-26T21:35:34.816Z,102825.88
2019-06-26T21:38:04.050Z,102828.84
2019-06-26T21:40:33.259Z,102830.20
2019-06-26T21:43:02.453Z,102828.11
2019-06-26T21:45:31.658Z,102834.41
2019-06-26T21:48:02.575Z,102830.44
2019-06-26T21:50:31.811Z,102834.67
2019-06-26T21:53:00.965Z,102835.85
2019-06-26T21:55:34.190Z,102834.03
2019-06-26T21:58:01.101Z,102826.87
2019-06-26T22:00:30.935Z,102831.44
2019-06-26T22:03:00.196Z,102839.81
2019-06-26T22:05:29.393Z,102833.78
2019-06-26T22:07:58.571Z,102838.41
2019-06-26T22:10:27.802Z,102839.09
2019-06-26T22:12:57.044Z,102841.52
2019-06-26T22:15:26.224Z,102843.91
2019-06-26T22:17:55.512Z,102851.91
2019-06-26T22:20:24.701Z,102861.70
2019-06-26T22:22:53.889Z,102855.26
2019-06-26T22:25:23.123Z,102862.64
2019-06-26T22:27:52.309Z,102859.40
2019-06-26T22:30:21.549Z,102859.08
2019-06-26T22:32:50.736Z,102859.46
2019-06-26T22:35:20.053Z,102871.08
2019-06-26T22:37:49.266Z,102876.61
2019-06-26T22:40:18.484Z,102872.09
2019-06-26T22:42:47.685Z,102875.16
2019-06-26T22:45:16.880Z,102875.28
2019-06-26T22:47:46.106Z,102877.45
2019-06-26T22:50:15.308Z,102878.71
2019-06-26T22:52:44.525Z,102872.56
2019-06-26T22:55:13.724Z,102877.73
2019-06-26T22:57:43.042Z,102878.73
2019-06-26T23:00:13.816Z,102884.16
2019-06-26T23:02:43.035Z,102882.93
2019-06-26T23:05:12.271Z,102878.89
2019-06-26T23:07:41.449Z,102881.22
2019-06-26T23:10:10.868Z,102881.55
2019-06-26T23:12:40.075Z,102885.88
2019-06-26T23:15:09.494Z,102881.76
2019-06-26T23:17:38.743Z,102885.69
2019-06-26T23:20:08.486Z,102888.34
2019-06-26T23:22:37.775Z,102886.67
2019-06-26T23:25:07.873Z,102886.86
2019-06-26T23:27:37.052Z,102890.70
2019-06-26T23:30:19.808Z,102888.47
2019-06-26T23:32:49.081Z,102898.11
2019-06-26T23:35:18.272Z,102893.80
2019-06-26T23:37:47.504Z,102897.80
2019-06-26T23:40:16.742Z,102897.34
2019-06-26T23:42:45.987Z,102896.53
2019-06-26T23:45:15.201Z,102902.83
2019-06-26T23:47:44.413Z,102895.09
2019-06-26T23:50:13.589Z,102896.16
2019-06-26T23:52:42.868Z,102897.63
2019-06-26T23:55:12.064Z,102894.19
2019-06-26T23:57:57.696Z,102893.42
